Terminal Aerodrome Forecast
Issued by NWS

Home | Current Version | Previous Version | Text Only | Print | Product List | Glossary On
Versions: 1 2 3 4 5 6 7 8 9 10 11 12 13 14 15 16 17 18 19
000
FTUS45 KPSR 232320
TAFSDL
TAF
KSDL 232320Z 2400/2424 25008KT P6SM FEW120 SCT250
     FM240600 VRB04KT P6SM FEW150 SCT250
     FM241900 24008KT P6SM FEW120 SCT250=

USA.gov is the U.S. government's official web portal to all federal, state and local government web resources and services.